Time;durP1;ratioP1;P1;durP2;ratioP2;P2;SDS_P1;SDS_P2;PMS_P1;PMS_P2;Temp;Humidity;BMP_temperature;BMP_pressure;BME280_temperature;BME280_humidity;BME280_pressure;Samples;Min_cycle;Max_cycle;Signal;HPM_P1;HPM_P2
2023/07/31 00:01:04;;;;;;;0.10;0.10;;;;;;;18.62;100.00;98771.00;5113147;28;20692;-57
2023/07/31 00:03:51;;;;;;;0.10;0.10;;;;;;;18.67;100.00;98774.09;5115888;28;20276;-57
2023/07/31 00:06:38;;;;;;;0.10;0.10;;;;;;;18.64;100.00;98774.41;5116084;28;20251;-57
2023/07/31 00:09:25;;;;;;;0.00;0.00;;;;;;;18.66;100.00;98781.31;5117329;28;20236;-57
2023/07/31 00:12:12;;;;;;;0.10;0.10;;;;;;;18.68;100.00;98784.69;5116983;28;20251;-57
2023/07/31 00:14:58;;;;;;;0.00;0.00;;;;;;;18.72;100.00;98774.47;5117255;28;20197;-57
2023/07/31 00:17:47;;;;;;;0.10;0.10;;;;;;;18.71;100.00;98776.31;5117068;28;20248;-57
2023/07/31 00:20:34;;;;;;;0.03;0.03;;;;;;;18.69;100.00;98774.78;5115952;28;20195;-58
2023/07/31 00:23:21;;;;;;;0.10;0.10;;;;;;;18.65;100.00;98779.63;5117000;28;20191;-57
2023/07/31 00:26:08;;;;;;;0.10;0.10;;;;;;;18.57;100.00;98782.22;5116878;28;20197;-57
2023/07/31 00:28:55;;;;;;;0.10;0.10;;;;;;;18.54;100.00;98777.19;5116791;28;20316;-57
2023/07/31 00:31:42;;;;;;;0.10;0.10;;;;;;;18.47;100.00;98778.81;5116657;28;20210;-57
2023/07/31 00:34:30;;;;;;;0.10;0.10;;;;;;;18.36;100.00;98781.75;5116554;28;20234;-58
2023/07/31 00:37:17;;;;;;;0.10;0.10;;;;;;;18.20;100.00;98763.72;5114244;28;20193;-57
2023/07/31 00:40:05;;;;;;;0.10;0.10;;;;;;;18.16;100.00;98773.91;5116648;28;20220;-58
2023/07/31 00:42:51;;;;;;;0.10;0.10;;;;;;;18.16;100.00;98762.34;5115549;28;20187;-58
2023/07/31 00:45:38;;;;;;;0.10;0.10;;;;;;;18.14;100.00;98767.00;5116366;28;20185;-56
2023/07/31 00:48:26;;;;;;;0.10;0.10;;;;;;;18.16;100.00;98765.03;5115475;28;20244;-57
2023/07/31 00:51:15;;;;;;;0.10;0.10;;;;;;;18.26;100.00;98766.63;5115166;28;20238;-57
2023/07/31 00:54:02;;;;;;;0.10;0.10;;;;;;;18.20;100.00;98769.91;5116388;28;20186;-57
2023/07/31 00:56:51;;;;;;;0.10;0.10;;;;;;;18.33;100.00;98752.56;5116305;28;20206;-58
2023/07/31 00:59:38;;;;;;;0.10;0.10;;;;;;;18.26;100.00;98753.22;5115935;28;20195;-57
2023/07/31 01:02:25;;;;;;;0.10;0.10;;;;;;;18.27;100.00;98754.03;5116347;28;20252;-57
2023/07/31 01:05:12;;;;;;;0.00;0.00;;;;;;;18.15;100.00;98747.25;5116290;28;20198;-57
2023/07/31 01:08:09;;;;;;;0.00;0.00;;;;;;;18.18;100.00;98753.16;5116055;28;20197;-57
2023/07/31 01:11:00;;;;;;;0.10;0.10;;;;;;;18.11;100.00;98738.69;5116009;28;20193;-57
2023/07/31 01:13:47;;;;;;;0.00;0.00;;;;;;;18.12;100.00;98750.22;5115728;28;20214;-57
2023/07/31 01:16:33;;;;;;;0.10;0.10;;;;;;;18.19;100.00;98743.25;5114610;28;20210;-57
2023/07/31 01:19:25;;;;;;;0.10;0.10;;;;;;;18.18;100.00;98742.41;5115922;28;20672;-57
2023/07/31 01:22:32;;;;;;;0.10;0.10;;;;;;;18.21;100.00;98734.06;5114601;28;20666;-57
2023/07/31 01:25:38;;;;;;;0.10;0.10;;;;;;;18.28;100.00;98737.78;5115705;28;20190;-57
2023/07/31 01:28:31;;;;;;;0.10;0.10;;;;;;;18.25;100.00;98737.28;5115748;28;20194;-57
2023/07/31 01:31:23;;;;;;;0.10;0.10;;;;;;;18.19;100.00;98738.75;5115531;28;20186;-57
2023/07/31 01:34:11;;;;;;;0.10;0.10;;;;;;;18.16;100.00;98733.69;5115530;28;20189;-56
2023/07/31 01:36:58;;;;;;;0.00;0.00;;;;;;;18.14;100.00;98738.34;5114220;28;20190;-57
2023/07/31 01:39:45;;;;;;;0.10;0.10;;;;;;;18.20;100.00;98732.38;5115388;28;20683;-57
2023/07/31 01:42:32;;;;;;;0.10;0.10;;;;;;;18.13;100.00;98725.94;5115550;28;20190;-57
2023/07/31 01:45:20;;;;;;;0.10;0.10;;;;;;;18.08;100.00;98727.44;5115485;28;20187;-57
2023/07/31 01:48:07;;;;;;;0.10;0.10;;;;;;;18.07;100.00;98726.59;5114237;28;20195;-57
2023/07/31 01:50:55;;;;;;;0.10;0.10;;;;;;;18.02;100.00;98727.03;5112775;28;20287;-57
2023/07/31 01:53:41;;;;;;;0.10;0.10;;;;;;;17.97;100.00;98731.22;5115013;28;20269;-57
2023/07/31 01:56:29;;;;;;;0.10;0.10;;;;;;;18.05;100.00;98738.44;5115132;28;20186;-57
2023/07/31 01:59:15;;;;;;;0.10;0.10;;;;;;;17.96;100.00;98724.16;5114285;28;20213;-57
2023/07/31 02:02:04;;;;;;;0.10;0.10;;;;;;;17.99;100.00;98730.03;5114113;28;20189;-57
2023/07/31 02:04:51;;;;;;;0.10;0.10;;;;;;;17.97;100.00;98715.13;5113959;28;20312;-57
2023/07/31 02:07:38;;;;;;;0.10;0.10;;;;;;;17.94;100.00;98707.38;5113808;28;20264;-57
2023/07/31 02:10:25;;;;;;;0.10;0.10;;;;;;;17.89;100.00;98705.19;5115010;28;20220;-57
2023/07/31 02:13:11;;;;;;;0.10;0.10;;;;;;;17.97;100.00;98715.13;5114569;28;20237;-57
2023/07/31 02:15:58;;;;;;;0.10;0.10;;;;;;;18.02;100.00;98712.81;5114833;28;20683;-57
2023/07/31 02:18:47;;;;;;;0.10;0.10;;;;;;;17.98;100.00;98708.78;5114791;28;20186;-57
2023/07/31 02:21:34;;;;;;;0.10;0.10;;;;;;;18.01;100.00;98703.94;5113491;28;20190;-57
2023/07/31 02:24:21;;;;;;;0.00;0.00;;;;;;;18.01;100.00;98701.25;5114687;28;20206;-57
2023/07/31 02:27:08;;;;;;;0.00;0.00;;;;;;;18.07;100.00;98702.47;5113593;28;20239;-57
2023/07/31 02:29:55;;;;;;;0.10;0.10;;;;;;;18.07;100.00;98707.84;5114474;28;20316;-57
2023/07/31 02:32:41;;;;;;;0.10;0.10;;;;;;;18.09;100.00;98705.00;5113391;28;20693;-57
2023/07/31 02:35:30;;;;;;;0.10;0.10;;;;;;;18.07;100.00;98697.13;5112264;28;20307;-58
2023/07/31 02:38:17;;;;;;;0.10;0.10;;;;;;;18.02;100.00;98697.56;5114471;28;20189;-57
2023/07/31 02:41:04;;;;;;;0.10;0.10;;;;;;;17.96;100.00;98697.38;5114361;28;20194;-57
2023/07/31 02:43:51;;;;;;;0.10;0.10;;;;;;;18.01;100.00;98693.22;5114283;28;20672;-57
2023/07/31 02:46:39;;;;;;;0.10;0.10;;;;;;;17.98;100.00;98693.53;5114241;28;20239;-57
2023/07/31 02:49:25;;;;;;;0.10;0.10;;;;;;;17.94;100.00;98691.31;5114110;28;20208;-57
2023/07/31 02:52:14;;;;;;;0.10;0.10;;;;;;;17.92;100.00;98688.78;5112825;28;20669;-57
2023/07/31 02:55:01;;;;;;;0.10;0.10;;;;;;;17.94;100.00;98686.78;5114094;28;20193;-57
2023/07/31 02:57:48;;;;;;;0.10;0.10;;;;;;;17.94;100.00;98696.66;5113941;28;20671;-57
2023/07/31 03:00:35;;;;;;;0.10;0.10;;;;;;;18.02;100.00;98702.09;5113922;28;20271;-57
2023/07/31 03:03:21;;;;;;;0.10;0.10;;;;;;;17.98;100.00;98692.69;5113838;28;20267;-57
2023/07/31 03:06:08;;;;;;;0.10;0.10;;;;;;;17.95;100.00;98692.97;5112602;28;20297;-57
2023/07/31 03:08:57;;;;;;;0.10;0.10;;;;;;;17.98;100.00;98679.28;5114041;28;20198;-57
2023/07/31 03:11:44;;;;;;;0.10;0.10;;;;;;;18.06;100.00;98687.41;5113815;28;20272;-57
2023/07/31 03:14:31;;;;;;;0.10;0.10;;;;;;;18.04;100.00;98686.69;5113499;28;20704;-57
2023/07/31 03:17:18;;;;;;;0.10;0.10;;;;;;;18.06;100.00;98695.44;5113714;28;20193;-57
2023/07/31 03:20:05;;;;;;;0.10;0.10;;;;;;;18.00;100.00;98693.38;5113739;28;20186;-57
2023/07/31 03:22:52;;;;;;;0.10;0.10;;;;;;;18.03;100.00;98690.38;5113212;28;20214;-57
2023/07/31 03:25:55;;;;;;;0.00;0.00;;;;;;;17.98;100.00;98690.84;5113433;28;20229;-57
2023/07/31 03:28:42;;;;;;;0.10;0.10;;;;;;;18.03;100.00;98693.03;5112637;28;20197;-57
2023/07/31 03:31:29;;;;;;;0.10;0.10;;;;;;;17.97;100.00;98693.69;5113601;28;20676;-57
2023/07/31 03:34:16;;;;;;;0.00;0.00;;;;;;;18.00;100.00;98696.06;5112983;28;20221;-57
2023/07/31 03:37:04;;;;;;;0.10;0.10;;;;;;;17.98;100.00;98696.22;5111054;28;20186;-57
2023/07/31 03:39:52;;;;;;;0.10;0.10;;;;;;;17.98;100.00;98698.88;5113383;28;20189;-57
2023/07/31 03:42:40;;;;;;;0.10;0.10;;;;;;;18.02;100.00;98694.88;5113255;28;20239;-57
2023/07/31 03:45:27;;;;;;;0.10;0.10;;;;;;;18.00;100.00;98699.56;5112273;28;20214;-58
2023/07/31 03:48:15;;;;;;;0.10;0.10;;;;;;;18.09;100.00;98700.47;5113432;28;20227;-57
2023/07/31 03:51:01;;;;;;;0.10;0.10;;;;;;;18.17;100.00;98691.66;5110845;28;20256;-57
2023/07/31 03:53:48;;;;;;;0.10;0.10;;;;;;;18.15;100.00;98689.13;5113180;28;20492;-57
2023/07/31 03:56:35;;;;;;;0.10;0.10;;;;;;;18.15;100.00;98691.81;5113327;28;20267;-57
2023/07/31 03:59:24;;;;;;;0.10;0.10;;;;;;;18.14;100.00;98691.94;5113033;28;20189;-57
2023/07/31 04:02:10;;;;;;;0.10;0.10;;;;;;;18.14;100.00;98686.56;5113250;28;20218;-57
2023/07/31 04:04:57;;;;;;;0.10;0.10;;;;;;;18.25;100.00;98684.50;5113160;28;20242;-57
2023/07/31 04:07:44;;;;;;;0.10;0.10;;;;;;;18.26;100.00;98685.34;5111624;28;20194;-57
2023/07/31 04:10:33;;;;;;;0.10;0.10;;;;;;;18.27;100.00;98679.81;5113185;28;20190;-57
2023/07/31 04:13:20;;;;;;;0.10;0.10;;;;;;;18.31;100.00;98680.31;5112939;28;20260;-57
2023/07/31 04:16:08;;;;;;;0.10;0.10;;;;;;;18.30;100.00;98681.31;5112916;28;20689;-57
2023/07/31 04:18:54;;;;;;;0.10;0.10;;;;;;;18.28;100.00;98683.34;5113068;28;20723;-58
2023/07/31 04:21:41;;;;;;;0.10;0.10;;;;;;;18.32;100.00;98676.63;5111693;28;20749;-57
2023/07/31 04:24:28;;;;;;;0.10;0.10;;;;;;;18.32;100.00;98673.97;5111738;28;20264;-57
2023/07/31 04:27:15;;;;;;;0.10;0.10;;;;;;;18.36;100.00;98677.19;5112883;28;20224;-57
2023/07/31 04:30:02;;;;;;;0.10;0.10;;;;;;;18.36;100.00;98669.97;5112995;28;20194;-58
2023/07/31 04:32:50;;;;;;;0.10;0.10;;;;;;;18.41;100.00;98664.13;5112868;28;20224;-58
2023/07/31 04:35:37;;;;;;;0.00;0.00;;;;;;;18.38;100.00;98667.13;5111012;28;20249;-57
2023/07/31 04:38:24;;;;;;;0.10;0.10;;;;;;;18.40;100.00;98663.28;5112875;28;20740;-57
2023/07/31 04:41:11;;;;;;;0.10;0.10;;;;;;;18.37;100.00;98663.63;5112707;28;20265;-57
2023/07/31 04:43:58;;;;;;;0.10;0.10;;;;;;;18.41;100.00;98658.75;5112802;28;20214;-57
2023/07/31 04:46:45;;;;;;;0.10;0.10;;;;;;;18.25;100.00;98664.91;5112477;28;20206;-57
2023/07/31 04:49:34;;;;;;;0.10;0.10;;;;;;;18.37;100.00;98665.44;5112946;28;20281;-57
2023/07/31 04:52:21;;;;;;;0.10;0.10;;;;;;;18.34;100.00;98665.78;5115323;28;20202;-57
2023/07/31 04:55:08;;;;;;;0.10;0.10;;;;;;;18.37;100.00;98666.28;5116196;28;20222;-58
2023/07/31 04:57:55;;;;;;;0.10;0.10;;;;;;;18.31;100.00;98666.91;5116130;28;20236;-57
2023/07/31 05:00:42;;;;;;;0.10;0.10;;;;;;;18.39;100.00;98668.81;5116169;28;20229;-57
2023/07/31 05:03:29;;;;;;;0.10;0.10;;;;;;;18.32;100.00;98668.59;5116095;28;20221;-57
2023/07/31 05:06:17;;;;;;;0.10;0.10;;;;;;;18.40;100.00;98667.81;5114403;28;20664;-57
2023/07/31 05:09:04;;;;;;;0.10;0.10;;;;;;;18.38;100.00;98670.66;5116192;28;20305;-57
2023/07/31 05:11:51;;;;;;;0.10;0.10;;;;;;;18.38;100.00;98675.19;5115903;28;20198;-57
2023/07/31 05:14:38;;;;;;;0.10;0.10;;;;;;;18.48;100.00;98674.06;5115373;28;20660;-58
2023/07/31 05:17:25;;;;;;;0.00;0.00;;;;;;;18.38;100.00;98677.84;5116052;28;20270;-57
2023/07/31 05:20:13;;;;;;;0.10;0.10;;;;;;;18.45;100.00;98676.22;5115960;28;20194;-57
2023/07/31 05:23:01;;;;;;;0.10;0.10;;;;;;;18.47;100.00;98669.69;5115755;28;20201;-57
2023/07/31 05:25:48;;;;;;;0.10;0.10;;;;;;;18.46;100.00;98673.38;5115804;28;20187;-57
2023/07/31 05:28:35;;;;;;;0.07;0.07;;;;;;;18.54;100.00;98673.44;5115929;28;20205;-57
2023/07/31 05:31:24;;;;;;;0.10;0.10;;;;;;;18.49;100.00;98670.38;5115321;28;20198;-57
2023/07/31 05:34:11;;;;;;;0.10;0.10;;;;;;;18.47;100.00;98666.16;5114743;28;20206;-57
2023/07/31 05:36:58;;;;;;;0.10;0.10;;;;;;;18.52;100.00;98667.34;5114337;28;20685;-57
2023/07/31 05:39:46;;;;;;;0.10;0.10;;;;;;;18.52;100.00;98662.00;5114487;28;20300;-57
2023/07/31 05:42:33;;;;;;;0.10;0.10;;;;;;;18.47;100.00;98672.38;5115150;28;20190;-57
2023/07/31 05:45:20;;;;;;;0.10;0.10;;;;;;;18.58;100.00;98672.09;5114473;28;20251;-57
2023/07/31 05:48:07;;;;;;;0.10;0.10;;;;;;;18.61;100.00;98662.88;5115326;28;20244;-57
2023/07/31 05:50:53;;;;;;;0.10;0.10;;;;;;;18.65;100.00;98661.59;5113784;28;20194;-57
2023/07/31 05:53:40;;;;;;;0.10;0.10;;;;;;;18.58;100.00;98668.56;5115259;28;20321;-58
2023/07/31 05:56:28;;;;;;;0.10;0.10;;;;;;;18.59;100.00;98656.84;5114955;28;20263;-57
2023/07/31 05:59:17;;;;;;;0.10;0.10;;;;;;;18.52;100.00;98664.66;5115009;28;20202;-57
2023/07/31 06:02:04;;;;;;;0.10;0.10;;;;;;;18.41;100.00;98662.28;5114796;28;20206;-57
2023/07/31 06:04:51;;;;;;;0.10;0.10;;;;;;;18.42;100.00;98660.44;5114744;28;20194;-57
2023/07/31 06:07:38;;;;;;;0.10;0.10;;;;;;;18.46;100.00;98667.19;5113767;28;20197;-57
2023/07/31 06:10:25;;;;;;;0.10;0.10;;;;;;;18.50;100.00;98672.03;5114921;28;20198;-57
2023/07/31 06:13:13;;;;;;;0.00;0.00;;;;;;;18.54;100.00;98665.38;5115050;28;20206;-57
2023/07/31 06:16:04;;;;;;;0.10;0.10;;;;;;;18.50;100.00;98655.94;5114556;27;20210;-57
2023/07/31 06:18:51;;;;;;;0.10;0.10;;;;;;;18.58;100.00;98655.16;5114742;28;20197;-57
2023/07/31 06:21:38;;;;;;;0.10;0.10;;;;;;;18.71;100.00;98663.63;5113696;28;20320;-57
2023/07/31 06:24:25;;;;;;;0.10;0.10;;;;;;;18.79;100.00;98654.75;5114808;28;20198;-57
2023/07/31 06:27:12;;;;;;;0.10;0.10;;;;;;;18.86;100.00;98653.09;5114705;28;20194;-57
2023/07/31 06:30:00;;;;;;;0.10;0.10;;;;;;;18.95;100.00;98652.13;5114537;28;20260;-57
2023/07/31 06:32:47;;;;;;;0.10;0.10;;;;;;;18.92;100.00;98649.78;5114573;28;20217;-58
2023/07/31 06:35:34;;;;;;;0.10;0.10;;;;;;;18.94;100.00;98642.41;5111967;28;20238;-57
2023/07/31 06:38:23;;;;;;;0.00;0.00;;;;;;;19.03;100.00;98637.91;5114169;28;20227;-57
2023/07/31 06:41:11;;;;;;;0.10;0.10;;;;;;;19.09;100.00;98643.44;5114268;28;20194;-57
2023/07/31 06:43:58;;;;;;;0.10;0.10;;;;;;;18.93;100.00;98629.16;5114172;28;20185;-57
2023/07/31 06:46:46;;;;;;;0.10;0.10;;;;;;;18.99;100.00;98641.91;5114309;28;20209;-57
2023/07/31 06:49:33;;;;;;;0.10;0.10;;;;;;;19.17;100.00;98647.97;5113497;28;20193;-57
2023/07/31 06:52:20;;;;;;;0.10;0.10;;;;;;;19.22;100.00;98640.28;5112876;28;20208;-57
2023/07/31 06:55:18;;;;;;;0.03;0.03;;;;;;;19.24;100.00;98635.56;5113900;28;20214;-57
2023/07/31 06:58:05;;;;;;;0.10;0.10;;;;;;;19.20;100.00;98642.25;5114006;28;20218;-57
2023/07/31 07:00:52;;;;;;;0.03;0.03;;;;;;;19.25;100.00;98637.25;5113755;28;20240;-57
2023/07/31 07:03:40;;;;;;;0.10;0.10;;;;;;;19.19;100.00;98640.59;5113959;28;20672;-57
2023/07/31 07:06:27;;;;;;;0.10;0.10;;;;;;;19.26;100.00;98636.25;5112553;28;20190;-57
2023/07/31 07:09:14;;;;;;;0.10;0.10;;;;;;;19.11;100.00;98648.66;5113745;28;20194;-58
2023/07/31 07:12:01;;;;;;;0.10;0.10;;;;;;;19.04;100.00;98631.53;5113447;28;20260;-57
2023/07/31 07:14:48;;;;;;;0.10;0.10;;;;;;;19.16;100.00;98644.44;5113652;28;20190;-57
2023/07/31 07:17:35;;;;;;;0.10;0.10;;;;;;;19.15;100.00;98632.03;5113755;28;20202;-58
2023/07/31 07:20:24;;;;;;;0.10;0.10;;;;;;;19.27;100.00;98635.22;5112709;28;20583;-58
2023/07/31 07:23:10;;;;;;;0.10;0.10;;;;;;;19.00;100.00;98644.41;5112678;28;20201;-58
2023/07/31 07:25:58;;;;;;;0.10;0.10;;;;;;;18.95;100.00;98633.34;5113481;28;20198;-58
2023/07/31 07:28:45;;;;;;;0.10;0.10;;;;;;;18.83;100.00;98632.81;5113538;28;20261;-57
2023/07/31 07:31:32;;;;;;;0.07;0.07;;;;;;;18.92;100.00;98638.22;5113634;28;20679;-58
2023/07/31 07:34:19;;;;;;;0.10;0.10;;;;;;;18.83;100.00;98631.97;5113205;28;20385;-57
2023/07/31 07:37:07;;;;;;;0.00;0.00;;;;;;;18.80;100.00;98632.28;5111797;28;20209;-57
2023/07/31 07:39:55;;;;;;;0.00;0.00;;;;;;;18.69;100.00;98628.06;5113432;28;20195;-57
2023/07/31 07:42:42;;;;;;;0.10;0.10;;;;;;;18.76;100.00;98626.41;5113237;28;20300;-57
2023/07/31 07:45:29;;;;;;;0.10;0.10;;;;;;;18.65;100.00;98626.72;5112310;28;20179;-57
2023/07/31 07:48:17;;;;;;;0.10;0.10;;;;;;;18.73;100.00;98625.91;5113248;28;20201;-57
2023/07/31 07:51:03;;;;;;;0.10;0.10;;;;;;;18.81;100.00;98626.75;5111873;28;20199;-58
2023/07/31 07:53:52;;;;;;;0.10;0.10;;;;;;;18.78;100.00;98624.41;5113298;28;20668;-58
2023/07/31 07:56:39;;;;;;;0.10;0.10;;;;;;;18.67;100.00;98626.56;5112976;28;20217;-57
2023/07/31 07:59:26;;;;;;;0.10;0.10;;;;;;;18.78;100.00;98634.28;5112878;28;20193;-57
2023/07/31 08:02:13;;;;;;;0.10;0.10;;;;;;;18.69;100.00;98637.94;5113117;28;20189;-58
2023/07/31 08:05:00;;;;;;;0.10;0.10;;;;;;;18.60;100.00;98629.00;5112988;28;20212;-57
2023/07/31 08:07:47;;;;;;;0.10;0.10;;;;;;;18.60;100.00;98626.31;5112399;28;20256;-57
2023/07/31 08:10:35;;;;;;;0.10;0.10;;;;;;;18.56;100.00;98623.13;5113191;28;20190;-57
2023/07/31 08:13:22;;;;;;;0.10;0.10;;;;;;;18.71;100.00;98617.16;5112390;28;20198;-57
2023/07/31 08:16:09;;;;;;;0.10;0.10;;;;;;;18.63;100.00;98612.59;5112711;28;20260;-57
2023/07/31 08:18:56;;;;;;;0.10;0.10;;;;;;;18.83;100.00;98613.19;5113102;28;20317;-57
2023/07/31 08:21:43;;;;;;;0.10;0.10;;;;;;;18.91;100.00;98606.97;5111253;28;20202;-57
2023/07/31 08:24:30;;;;;;;0.10;0.10;;;;;;;18.96;100.00;98599.28;5113073;28;20246;-57
2023/07/31 08:27:18;;;;;;;0.10;0.10;;;;;;;18.96;100.00;98597.44;5116978;28;20201;-57
2023/07/31 08:30:06;;;;;;;0.10;0.10;;;;;;;19.02;100.00;98596.78;5116953;28;20581;-58
2023/07/31 08:32:53;;;;;;;0.10;0.10;;;;;;;19.20;100.00;98598.47;5116811;28;20194;-58
2023/07/31 08:35:40;;;;;;;0.10;0.10;;;;;;;19.18;100.00;98593.25;5115036;28;20229;-57
2023/07/31 08:38:29;;;;;;;0.00;0.00;;;;;;;19.39;100.00;98588.22;5116864;28;20220;-58
2023/07/31 08:41:17;;;;;;;0.10;0.10;;;;;;;19.66;100.00;98592.44;5116642;28;20210;-58
2023/07/31 08:44:05;;;;;;;0.10;0.10;;;;;;;19.55;100.00;98578.50;5116716;28;20190;-58
2023/07/31 08:46:52;;;;;;;0.10;0.10;;;;;;;19.84;100.00;98581.50;5116591;28;20189;-58
2023/07/31 08:49:41;;;;;;;0.10;0.10;;;;;;;19.97;100.00;98573.75;5116534;28;20236;-58
2023/07/31 08:52:27;;;;;;;0.10;0.10;;;;;;;20.02;100.00;98567.84;5115076;28;20186;-58
2023/07/31 08:55:15;;;;;;;0.10;0.10;;;;;;;20.15;100.00;98572.69;5115461;28;20236;-58
2023/07/31 08:58:05;;;;;;;0.10;0.10;;;;;;;19.92;100.00;98575.28;5116442;28;20185;-57
2023/07/31 09:00:55;;;;;;;0.10;0.10;;;;;;;19.85;100.00;98572.44;5116431;28;20222;-57
2023/07/31 09:03:44;;;;;;;0.00;0.00;;;;;;;19.78;100.00;98565.22;5116301;28;20751;-58
2023/07/31 09:06:32;;;;;;;0.00;0.00;;;;;;;19.87;100.00;98565.03;5114865;28;20191;-57
2023/07/31 09:09:20;;;;;;;0.10;0.10;;;;;;;19.76;100.00;98567.25;5116128;28;20194;-58
2023/07/31 09:12:08;;;;;;;0.10;0.10;;;;;;;19.81;100.00;98570.28;5116217;28;20263;-58
2023/07/31 09:14:54;;;;;;;0.03;0.03;;;;;;;19.47;100.00;98557.00;5116134;28;20198;-57
2023/07/31 09:17:43;;;;;;;0.00;0.00;;;;;;;19.66;100.00;98557.53;5115735;28;20218;-57
2023/07/31 09:20:31;;;;;;;0.10;0.10;;;;;;;19.58;100.00;98549.47;5114649;28;20194;-57
2023/07/31 09:23:18;;;;;;;0.10;0.10;;;;;;;19.46;100.00;98566.91;5115990;28;20672;-57
2023/07/31 09:26:05;;;;;;;0.10;0.10;;;;;;;19.33;100.00;98563.91;5115888;28;20210;-58
2023/07/31 09:28:53;;;;;;;0.10;0.10;;;;;;;19.17;100.00;98565.59;5115796;28;20195;-58
2023/07/31 09:31:41;;;;;;;0.00;0.00;;;;;;;19.18;100.00;98561.06;5115736;28;20672;-58
2023/07/31 09:34:39;;;;;;;0.10;0.10;;;;;;;18.93;100.00;98565.56;5115613;28;20293;-58
2023/07/31 09:37:26;;;;;;;0.10;0.10;;;;;;;18.80;100.00;98575.94;5113537;28;20206;-58
2023/07/31 09:40:26;;;;;;;0.10;0.10;;;;;;;18.73;100.00;98583.81;5115595;28;20249;-59
2023/07/31 09:43:17;;;;;;;0.10;0.10;;;;;;;18.67;100.00;98597.88;5115472;28;20210;-58
2023/07/31 09:46:04;;;;;;;0.10;0.10;;;;;;;18.69;100.00;98593.19;5115450;28;20260;-59
2023/07/31 09:48:52;;;;;;;0.10;0.10;;;;;;;18.76;100.00;98599.59;5115478;28;20198;-58
2023/07/31 09:51:41;;;;;;;0.10;0.10;;;;;;;18.78;100.00;98594.03;5113987;28;20194;-58
2023/07/31 09:54:28;;;;;;;0.10;0.10;;;;;;;18.74;100.00;98596.22;5115291;28;20186;-58
2023/07/31 09:57:19;;;;;;;0.10;0.10;;;;;;;19.01;100.00;98603.16;5114992;28;20411;-59
2023/07/31 10:00:09;;;;;;;0.00;0.00;;;;;;;19.00;100.00;98611.38;5115218;28;20236;-58
2023/07/31 10:03:01;;;;;;;0.10;0.10;;;;;;;19.10;100.00;98609.38;5115097;28;20194;-58
2023/07/31 10:05:53;;;;;;;0.10;0.10;;;;;;;19.10;100.00;98618.25;5113749;28;20205;-58
2023/07/31 10:08:43;;;;;;;0.10;0.10;;;;;;;18.89;100.00;98617.88;5114846;28;20328;-58
2023/07/31 10:11:31;;;;;;;0.10;0.10;;;;;;;18.48;100.00;98604.31;5115036;28;20267;-58
2023/07/31 10:14:20;;;;;;;0.10;0.10;;;;;;;18.31;100.00;98600.72;5114849;28;20198;-58
2023/07/31 10:17:09;;;;;;;0.10;0.10;;;;;;;18.40;100.00;98614.16;5114490;28;20214;-58
2023/07/31 10:19:58;;;;;;;0.10;0.10;;;;;;;18.36;100.00;98607.47;5114116;28;20210;-58
2023/07/31 10:22:46;;;;;;;0.10;0.10;;;;;;;18.22;100.00;98596.31;5114395;28;20672;-58
2023/07/31 10:25:36;;;;;;;0.10;0.10;;;;;;;18.24;100.00;98599.72;5114692;28;20236;-58
2023/07/31 10:28:24;;;;;;;0.00;0.00;;;;;;;18.19;100.00;98591.28;5115016;28;20194;-58
2023/07/31 10:31:11;;;;;;;0.10;0.10;;;;;;;18.62;100.00;98593.97;5114819;28;20194;-58
2023/07/31 10:34:00;;;;;;;0.10;0.10;;;;;;;18.65;100.00;98599.06;5114262;28;20304;-58
2023/07/31 10:36:49;;;;;;;0.10;0.10;;;;;;;18.92;100.00;98592.59;5113166;28;20214;-58
2023/07/31 10:39:38;;;;;;;0.10;0.10;;;;;;;19.28;100.00;98590.41;5114420;28;20199;-58
2023/07/31 10:42:37;;;;;;;0.10;0.10;;;;;;;19.24;100.00;98578.34;5113478;28;20189;-57
2023/07/31 10:45:32;;;;;;;0.10;0.10;;;;;;;19.55;100.00;98573.97;5114026;28;20202;-58
2023/07/31 10:48:20;;;;;;;0.10;0.10;;;;;;;19.92;100.00;98564.53;5112884;28;20199;-57
2023/07/31 10:51:09;;;;;;;0.10;0.10;;;;;;;19.92;100.00;98562.69;5113040;28;20214;-58
2023/07/31 10:54:11;;;;;;;0.00;0.00;;;;;;;20.15;100.00;98548.47;5114014;28;20366;-57
2023/07/31 10:56:58;;;;;;;0.07;0.07;;;;;;;20.07;100.00;98549.34;5114257;28;20221;-58
2023/07/31 10:59:47;;;;;;;0.10;0.10;;;;;;;20.11;100.00;98547.16;5114019;28;20222;-57
2023/07/31 11:02:34;;;;;;;0.10;0.10;;;;;;;19.63;100.00;98541.75;5113944;28;20193;-58
2023/07/31 11:05:22;;;;;;;0.10;0.10;;;;;;;19.72;100.00;98540.72;5112665;28;20198;-58
2023/07/31 11:08:13;;;;;;;0.10;0.10;;;;;;;19.67;100.00;98543.06;5113822;28;20228;-58
2023/07/31 11:11:07;;;;;;;0.00;0.00;;;;;;;19.91;100.00;98541.34;5113935;28;20323;-58
2023/07/31 11:13:56;;;;;;;0.10;0.10;;;;;;;19.89;100.00;98538.00;5113563;28;20194;-57
2023/07/31 11:16:44;;;;;;;0.10;0.10;;;;;;;20.35;100.00;98530.91;5113680;28;20251;-57
2023/07/31 11:19:31;;;;;;;0.10;0.10;;;;;;;20.22;100.00;98531.47;5113250;28;20189;-58
2023/07/31 11:22:18;;;;;;;0.10;0.10;;;;;;;20.65;100.00;98518.47;5112486;28;20194;-58
2023/07/31 11:25:06;;;;;;;0.00;0.00;;;;;;;20.56;100.00;98515.03;5113711;28;20205;-58
2023/07/31 11:27:54;;;;;;;0.10;0.10;;;;;;;20.86;100.00;98512.47;5113542;28;20220;-58
2023/07/31 11:30:41;;;;;;;0.00;0.00;;;;;;;21.10;100.00;98514.97;5113504;28;20202;-58
2023/07/31 11:33:29;;;;;;;0.10;0.10;;;;;;;20.63;100.00;98507.06;5113462;28;20198;-58
2023/07/31 11:36:17;;;;;;;0.10;0.10;;;;;;;20.79;100.00;98498.06;5111552;28;20225;-58
2023/07/31 11:39:09;;;;;;;0.10;0.10;;;;;;;20.82;100.00;98495.00;5113100;28;20218;-57
2023/07/31 11:42:00;;;;;;;0.08;0.08;;;;;;;20.83;100.00;98489.44;5113548;28;20308;-58
2023/07/31 11:44:47;;;;;;;0.00;0.00;;;;;;;20.44;100.00;98486.00;5113147;28;20206;-57
2023/07/31 11:47:35;;;;;;;0.10;0.10;;;;;;;20.46;100.00;98475.88;5113266;28;20193;-58
2023/07/31 11:50:25;;;;;;;0.00;0.00;;;;;;;20.48;100.00;98476.56;5111965;28;20190;-57
2023/07/31 11:53:12;;;;;;;0.10;0.10;;;;;;;20.87;100.00;98471.06;5113304;28;20206;-57
2023/07/31 11:56:02;;;;;;;0.10;0.10;;;;;;;20.88;100.00;98461.16;5113278;28;20305;-57
2023/07/31 11:58:54;;;;;;;0.10;0.10;;;;;;;20.86;100.00;98464.03;5114248;28;20221;-57
2023/07/31 12:01:41;;;;;;;0.10;0.10;;;;;;;20.87;100.00;98449.53;5117634;28;20227;-57
2023/07/31 12:04:28;;;;;;;0.10;0.10;;;;;;;21.14;100.00;98446.28;5117428;28;20672;-57
2023/07/31 12:07:16;;;;;;;0.10;0.10;;;;;;;21.19;100.00;98451.09;5116064;28;20303;-58
2023/07/31 12:10:04;;;;;;;0.10;0.10;;;;;;;21.13;100.00;98449.13;5117439;28;20197;-57
2023/07/31 12:13:00;;;;;;;0.10;0.10;;;;;;;21.13;100.00;98439.22;5117380;28;20248;-57
2023/07/31 12:15:47;;;;;;;0.10;0.10;;;;;;;21.03;100.00;98444.00;5117122;28;20202;-58
2023/07/31 12:18:36;;;;;;;0.10;0.10;;;;;;;20.91;100.00;98439.22;5117084;28;20218;-58
2023/07/31 12:21:23;;;;;;;0.10;0.10;;;;;;;21.03;100.00;98429.69;5115877;28;20225;-57
2023/07/31 12:24:11;;;;;;;0.10;0.10;;;;;;;20.99;100.00;98426.53;5117074;28;20193;-57
2023/07/31 12:26:58;;;;;;;0.10;0.10;;;;;;;20.96;100.00;98436.84;5116040;28;20194;-57
2023/07/31 12:29:45;;;;;;;0.00;0.00;;;;;;;21.14;100.00;98437.34;5116998;28;20680;-57
2023/07/31 12:32:33;;;;;;;0.10;0.10;;;;;;;21.22;100.00;98425.63;5116816;28;20264;-57
2023/07/31 12:35:19;;;;;;;0.10;0.10;;;;;;;21.37;100.00;98411.22;5115246;28;20229;-58
2023/07/31 12:38:06;;;;;;;0.00;0.00;;;;;;;21.55;100.00;98410.84;5116662;28;20206;-57
2023/07/31 12:40:54;;;;;;;0.10;0.10;;;;;;;21.90;100.00;98411.06;5116668;28;20262;-57
2023/07/31 12:43:43;;;;;;;0.00;0.00;;;;;;;22.77;100.00;98414.50;5116742;28;20194;-58
2023/07/31 12:46:30;;;;;;;0.00;0.00;;;;;;;23.62;100.00;98402.69;5116675;28;20193;-58
2023/07/31 12:49:17;;;;;;;0.10;0.10;;;;;;;25.21;100.00;98386.00;5116362;28;20190;-58
2023/07/31 12:52:05;;;;;;;0.10;0.10;;;;;;;27.59;89.36;98374.50;5115495;28;20187;-58
2023/07/31 12:54:52;;;;;;;0.00;0.00;;;;;;;27.00;85.29;98366.94;5116513;28;20190;-58
2023/07/31 12:57:40;;;;;;;0.00;0.00;;;;;;;26.53;91.64;98370.03;5116200;28;20613;-58
2023/07/31 13:00:27;;;;;;;0.00;0.00;;;;;;;25.99;93.74;98369.72;5116350;28;20259;-58